sensor_id;sensor_type;location;lat;lon;timestamp;P1;durP1;ratioP1;P2;durP2;ratioP2
60060;SDS011;45933;51.336;12.612;2023-05-23T00:01:28;5.40;;;4.20;;
60060;SDS011;45933;51.336;12.612;2023-05-23T00:03:55;5.80;;;4.50;;
60060;SDS011;45933;51.336;12.612;2023-05-23T00:06:21;6.80;;;4.75;;
60060;SDS011;45933;51.336;12.612;2023-05-23T00:08:46;5.68;;;4.57;;
60060;SDS011;45933;51.336;12.612;2023-05-23T00:11:12;5.20;;;4.47;;
60060;SDS011;45933;51.336;12.612;2023-05-23T00:13:37;9.57;;;4.57;;
60060;SDS011;45933;51.336;12.612;2023-05-23T00:16:04;6.22;;;4.28;;
60060;SDS011;45933;51.336;12.612;2023-05-23T00:18:33;7.47;;;4.82;;
60060;SDS011;45933;51.336;12.612;2023-05-23T00:20:59;5.95;;;4.55;;
60060;SDS011;45933;51.336;12.612;2023-05-23T00:23:26;5.40;;;4.55;;
60060;SDS011;45933;51.336;12.612;2023-05-23T00:25:53;5.75;;;4.93;;
60060;SDS011;45933;51.336;12.612;2023-05-23T00:28:19;5.78;;;4.90;;
60060;SDS011;45933;51.336;12.612;2023-05-23T00:30:45;7.50;;;5.30;;
60060;SDS011;45933;51.336;12.612;2023-05-23T00:33:11;8.93;;;5.20;;
60060;SDS011;45933;51.336;12.612;2023-05-23T00:35:38;6.57;;;4.93;;
60060;SDS011;45933;51.336;12.612;2023-05-23T00:38:04;6.32;;;5.47;;
60060;SDS011;45933;51.336;12.612;2023-05-23T00:40:31;6.55;;;5.38;;
60060;SDS011;45933;51.336;12.612;2023-05-23T00:42:56;5.72;;;5.15;;
60060;SDS011;45933;51.336;12.612;2023-05-23T00:45:22;5.45;;;4.80;;
60060;SDS011;45933;51.336;12.612;2023-05-23T00:47:47;8.63;;;5.28;;
60060;SDS011;45933;51.336;12.612;2023-05-23T00:50:14;8.50;;;5.72;;
60060;SDS011;45933;51.336;12.612;2023-05-23T00:52:40;8.60;;;6.00;;
60060;SDS011;45933;51.336;12.612;2023-05-23T00:55:06;8.65;;;5.57;;
60060;SDS011;45933;51.336;12.612;2023-05-23T00:57:32;6.22;;;5.35;;
60060;SDS011;45933;51.336;12.612;2023-05-23T00:59:59;9.63;;;6.47;;
60060;SDS011;45933;51.336;12.612;2023-05-23T01:02:24;6.90;;;5.30;;
60060;SDS011;45933;51.336;12.612;2023-05-23T01:04:51;6.93;;;5.57;;
60060;SDS011;45933;51.336;12.612;2023-05-23T01:07:19;6.93;;;6.00;;
60060;SDS011;45933;51.336;12.612;2023-05-23T01:09:45;7.07;;;5.78;;
60060;SDS011;45933;51.336;12.612;2023-05-23T01:15:08;7.13;;;5.53;;
60060;SDS011;45933;51.336;12.612;2023-05-23T01:17:54;8.38;;;5.85;;
60060;SDS011;45933;51.336;12.612;2023-05-23T01:20:34;6.70;;;5.72;;
60060;SDS011;45933;51.336;12.612;2023-05-23T01:23:09;9.55;;;6.05;;
60060;SDS011;45933;51.336;12.612;2023-05-23T01:28:23;6.30;;;5.70;;
60060;SDS011;45933;51.336;12.612;2023-05-23T01:30:53;9.85;;;6.88;;
60060;SDS011;45933;51.336;12.612;2023-05-23T01:33:22;7.53;;;6.72;;
60060;SDS011;45933;51.336;12.612;2023-05-23T01:35:49;8.57;;;6.18;;
60060;SDS011;45933;51.336;12.612;2023-05-23T01:38:15;8.70;;;6.07;;
60060;SDS011;45933;51.336;12.612;2023-05-23T01:40:40;8.15;;;6.22;;
60060;SDS011;45933;51.336;12.612;2023-05-23T01:43:05;8.30;;;6.40;;
60060;SDS011;45933;51.336;12.612;2023-05-23T01:45:31;8.38;;;7.15;;
60060;SDS011;45933;51.336;12.612;2023-05-23T01:47:57;9.77;;;6.95;;
60060;SDS011;45933;51.336;12.612;2023-05-23T01:50:23;12.13;;;7.07;;
60060;SDS011;45933;51.336;12.612;2023-05-23T01:52:49;9.52;;;7.18;;
60060;SDS011;45933;51.336;12.612;2023-05-23T01:55:15;10.02;;;7.38;;
60060;SDS011;45933;51.336;12.612;2023-05-23T01:57:46;9.02;;;7.38;;
60060;SDS011;45933;51.336;12.612;2023-05-23T02:00:14;9.57;;;6.57;;
60060;SDS011;45933;51.336;12.612;2023-05-23T02:02:40;10.98;;;6.35;;
60060;SDS011;45933;51.336;12.612;2023-05-23T02:05:05;10.40;;;7.15;;
60060;SDS011;45933;51.336;12.612;2023-05-23T02:07:31;8.07;;;7.07;;
60060;SDS011;45933;51.336;12.612;2023-05-23T02:09:56;8.95;;;7.43;;
60060;SDS011;45933;51.336;12.612;2023-05-23T02:12:21;7.88;;;7.07;;
60060;SDS011;45933;51.336;12.612;2023-05-23T02:14:47;8.52;;;7.35;;
60060;SDS011;45933;51.336;12.612;2023-05-23T02:17:13;8.98;;;7.75;;
60060;SDS011;45933;51.336;12.612;2023-05-23T02:19:40;10.32;;;7.72;;
60060;SDS011;45933;51.336;12.612;2023-05-23T02:22:05;11.07;;;8.07;;
60060;SDS011;45933;51.336;12.612;2023-05-23T02:24:31;9.82;;;6.90;;
60060;SDS011;45933;51.336;12.612;2023-05-23T02:26:56;7.55;;;6.75;;
60060;SDS011;45933;51.336;12.612;2023-05-23T02:29:21;9.48;;;6.68;;
60060;SDS011;45933;51.336;12.612;2023-05-23T02:31:46;7.30;;;6.53;;
60060;SDS011;45933;51.336;12.612;2023-05-23T02:34:12;8.18;;;7.38;;
60060;SDS011;45933;51.336;12.612;2023-05-23T02:36:37;9.20;;;7.03;;
60060;SDS011;45933;51.336;12.612;2023-05-23T02:39:03;8.38;;;6.88;;
60060;SDS011;45933;51.336;12.612;2023-05-23T02:41:28;10.40;;;7.00;;
60060;SDS011;45933;51.336;12.612;2023-05-23T02:43:54;9.98;;;7.47;;
60060;SDS011;45933;51.336;12.612;2023-05-23T02:46:19;9.25;;;6.78;;
60060;SDS011;45933;51.336;12.612;2023-05-23T02:48:45;9.57;;;6.25;;
60060;SDS011;45933;51.336;12.612;2023-05-23T02:51:10;8.95;;;7.10;;
60060;SDS011;45933;51.336;12.612;2023-05-23T02:53:37;8.73;;;6.95;;
60060;SDS011;45933;51.336;12.612;2023-05-23T02:56:02;10.82;;;7.20;;
60060;SDS011;45933;51.336;12.612;2023-05-23T02:58:27;8.45;;;6.90;;
60060;SDS011;45933;51.336;12.612;2023-05-23T03:00:53;9.82;;;6.53;;
60060;SDS011;45933;51.336;12.612;2023-05-23T03:03:19;8.98;;;7.10;;
60060;SDS011;45933;51.336;12.612;2023-05-23T03:05:44;10.20;;;8.05;;
60060;SDS011;45933;51.336;12.612;2023-05-23T03:08:10;11.63;;;8.13;;
60060;SDS011;45933;51.336;12.612;2023-05-23T03:10:36;9.00;;;7.60;;
60060;SDS011;45933;51.336;12.612;2023-05-23T03:13:01;14.75;;;8.65;;
60060;SDS011;45933;51.336;12.612;2023-05-23T03:15:26;9.05;;;7.57;;
60060;SDS011;45933;51.336;12.612;2023-05-23T03:17:52;9.98;;;7.60;;
60060;SDS011;45933;51.336;12.612;2023-05-23T03:20:17;10.10;;;8.00;;
60060;SDS011;45933;51.336;12.612;2023-05-23T03:22:42;9.40;;;8.18;;
60060;SDS011;45933;51.336;12.612;2023-05-23T03:25:09;8.80;;;7.72;;
60060;SDS011;45933;51.336;12.612;2023-05-23T03:27:34;10.10;;;8.57;;
60060;SDS011;45933;51.336;12.612;2023-05-23T03:30:01;12.60;;;9.05;;
60060;SDS011;45933;51.336;12.612;2023-05-23T03:32:27;10.38;;;8.95;;
60060;SDS011;45933;51.336;12.612;2023-05-23T03:34:52;11.40;;;8.55;;
60060;SDS011;45933;51.336;12.612;2023-05-23T03:37:17;11.25;;;8.75;;
60060;SDS011;45933;51.336;12.612;2023-05-23T03:39:43;10.60;;;8.27;;
60060;SDS011;45933;51.336;12.612;2023-05-23T03:42:08;10.68;;;8.65;;
60060;SDS011;45933;51.336;12.612;2023-05-23T03:44:33;10.57;;;9.40;;
60060;SDS011;45933;51.336;12.612;2023-05-23T03:46:58;11.60;;;9.00;;
60060;SDS011;45933;51.336;12.612;2023-05-23T03:49:24;11.88;;;9.82;;
60060;SDS011;45933;51.336;12.612;2023-05-23T03:51:49;10.65;;;9.25;;
60060;SDS011;45933;51.336;12.612;2023-05-23T03:54:14;13.77;;;10.02;;
60060;SDS011;45933;51.336;12.612;2023-05-23T03:56:41;12.70;;;9.23;;
60060;SDS011;45933;51.336;12.612;2023-05-23T03:59:07;10.32;;;9.30;;
60060;SDS011;45933;51.336;12.612;2023-05-23T04:01:32;11.13;;;9.07;;
60060;SDS011;45933;51.336;12.612;2023-05-23T04:03:58;11.18;;;9.98;;
60060;SDS011;45933;51.336;12.612;2023-05-23T04:06:24;13.50;;;9.88;;
60060;SDS011;45933;51.336;12.612;2023-05-23T04:08:49;11.73;;;8.93;;
60060;SDS011;45933;51.336;12.612;2023-05-23T04:11:15;10.75;;;9.50;;
60060;SDS011;45933;51.336;12.612;2023-05-23T04:13:40;10.40;;;9.30;;
60060;SDS011;45933;51.336;12.612;2023-05-23T04:16:06;11.20;;;9.98;;
60060;SDS011;45933;51.336;12.612;2023-05-23T04:18:31;11.43;;;9.70;;
60060;SDS011;45933;51.336;12.612;2023-05-23T04:21:02;11.20;;;10.00;;
60060;SDS011;45933;51.336;12.612;2023-05-23T04:23:28;14.75;;;9.63;;
60060;SDS011;45933;51.336;12.612;2023-05-23T04:25:53;11.02;;;9.20;;
60060;SDS011;45933;51.336;12.612;2023-05-23T04:28:19;11.63;;;9.73;;
60060;SDS011;45933;51.336;12.612;2023-05-23T04:30:44;10.27;;;9.27;;
60060;SDS011;45933;51.336;12.612;2023-05-23T04:33:09;12.35;;;10.40;;
60060;SDS011;45933;51.336;12.612;2023-05-23T04:35:35;13.45;;;10.55;;
60060;SDS011;45933;51.336;12.612;2023-05-23T04:38:03;13.57;;;10.63;;
60060;SDS011;45933;51.336;12.612;2023-05-23T04:40:28;13.43;;;10.55;;
60060;SDS011;45933;51.336;12.612;2023-05-23T04:42:54;11.88;;;10.40;;
60060;SDS011;45933;51.336;12.612;2023-05-23T04:45:20;14.70;;;10.90;;
60060;SDS011;45933;51.336;12.612;2023-05-23T04:47:46;12.35;;;10.65;;
60060;SDS011;45933;51.336;12.612;2023-05-23T04:50:11;14.40;;;11.50;;
60060;SDS011;45933;51.336;12.612;2023-05-23T04:52:38;11.45;;;10.27;;
60060;SDS011;45933;51.336;12.612;2023-05-23T04:55:04;12.27;;;9.60;;
60060;SDS011;45933;51.336;12.612;2023-05-23T04:57:30;12.45;;;11.25;;
60060;SDS011;45933;51.336;12.612;2023-05-23T04:59:55;13.50;;;11.32;;
60060;SDS011;45933;51.336;12.612;2023-05-23T05:02:21;13.75;;;10.98;;
60060;SDS011;45933;51.336;12.612;2023-05-23T05:04:46;12.68;;;11.18;;
60060;SDS011;45933;51.336;12.612;2023-05-23T05:07:11;13.55;;;11.30;;
60060;SDS011;45933;51.336;12.612;2023-05-23T05:09:37;12.98;;;11.73;;
60060;SDS011;45933;51.336;12.612;2023-05-23T05:12:02;13.10;;;11.80;;
60060;SDS011;45933;51.336;12.612;2023-05-23T05:14:27;14.00;;;11.63;;
60060;SDS011;45933;51.336;12.612;2023-05-23T05:16:53;12.88;;;11.57;;
60060;SDS011;45933;51.336;12.612;2023-05-23T05:19:22;12.55;;;11.27;;
60060;SDS011;45933;51.336;12.612;2023-05-23T05:21:47;13.40;;;11.18;;
60060;SDS011;45933;51.336;12.612;2023-05-23T05:24:13;12.00;;;10.80;;
60060;SDS011;45933;51.336;12.612;2023-05-23T05:26:39;12.52;;;11.23;;
60060;SDS011;45933;51.336;12.612;2023-05-23T05:29:05;12.65;;;11.30;;
60060;SDS011;45933;51.336;12.612;2023-05-23T05:31:30;13.55;;;11.43;;
60060;SDS011;45933;51.336;12.612;2023-05-23T05:33:56;13.55;;;11.73;;
60060;SDS011;45933;51.336;12.612;2023-05-23T05:36:22;14.05;;;11.55;;
60060;SDS011;45933;51.336;12.612;2023-05-23T05:38:47;15.90;;;11.30;;
60060;SDS011;45933;51.336;12.612;2023-05-23T05:41:12;13.50;;;11.68;;
60060;SDS011;45933;51.336;12.612;2023-05-23T05:43:37;12.93;;;11.55;;
60060;SDS011;45933;51.336;12.612;2023-05-23T05:46:03;16.02;;;12.20;;
60060;SDS011;45933;51.336;12.612;2023-05-23T05:48:29;14.95;;;13.50;;
60060;SDS011;45933;51.336;12.612;2023-05-23T05:50:54;14.98;;;13.30;;
60060;SDS011;45933;51.336;12.612;2023-05-23T05:53:19;16.88;;;13.57;;
60060;SDS011;45933;51.336;12.612;2023-05-23T05:55:44;15.18;;;13.50;;
60060;SDS011;45933;51.336;12.612;2023-05-23T05:58:10;16.60;;;14.02;;
60060;SDS011;45933;51.336;12.612;2023-05-23T06:00:35;17.52;;;15.25;;
60060;SDS011;45933;51.336;12.612;2023-05-23T06:03:06;17.35;;;15.60;;
60060;SDS011;45933;51.336;12.612;2023-05-23T06:05:35;16.80;;;15.02;;
60060;SDS011;45933;51.336;12.612;2023-05-23T06:08:01;17.17;;;15.38;;
60060;SDS011;45933;51.336;12.612;2023-05-23T06:10:27;17.50;;;15.70;;
60060;SDS011;45933;51.336;12.612;2023-05-23T06:12:53;18.40;;;16.00;;
60060;SDS011;45933;51.336;12.612;2023-05-23T06:15:18;24.90;;;17.48;;
60060;SDS011;45933;51.336;12.612;2023-05-23T06:17:44;17.55;;;15.82;;
60060;SDS011;45933;51.336;12.612;2023-05-23T06:20:09;18.27;;;16.33;;
60060;SDS011;45933;51.336;12.612;2023-05-23T06:22:35;19.27;;;15.88;;
60060;SDS011;45933;51.336;12.612;2023-05-23T06:25:01;19.33;;;17.38;;
60060;SDS011;45933;51.336;12.612;2023-05-23T06:27:26;23.20;;;20.70;;
60060;SDS011;45933;51.336;12.612;2023-05-23T06:29:51;25.58;;;21.17;;
60060;SDS011;45933;51.336;12.612;2023-05-23T06:32:17;25.83;;;21.77;;
60060;SDS011;45933;51.336;12.612;2023-05-23T06:34:42;26.52;;;22.80;;
60060;SDS011;45933;51.336;12.612;2023-05-23T06:37:07;27.05;;;23.08;;
60060;SDS011;45933;51.336;12.612;2023-05-23T06:39:33;28.83;;;24.00;;
60060;SDS011;45933;51.336;12.612;2023-05-23T06:41:58;28.25;;;23.38;;
60060;SDS011;45933;51.336;12.612;2023-05-23T06:44:23;27.65;;;24.42;;
60060;SDS011;45933;51.336;12.612;2023-05-23T06:46:48;29.88;;;24.13;;
60060;SDS011;45933;51.336;12.612;2023-05-23T06:49:14;28.40;;;25.42;;
60060;SDS011;45933;51.336;12.612;2023-05-23T06:51:39;28.77;;;25.55;;
60060;SDS011;45933;51.336;12.612;2023-05-23T06:54:05;30.05;;;24.88;;
60060;SDS011;45933;51.336;12.612;2023-05-23T06:56:30;29.13;;;25.92;;
60060;SDS011;45933;51.336;12.612;2023-05-23T06:58:55;30.73;;;25.70;;
60060;SDS011;45933;51.336;12.612;2023-05-23T07:01:21;33.53;;;26.85;;
60060;SDS011;45933;51.336;12.612;2023-05-23T07:03:46;32.63;;;27.77;;
60060;SDS011;45933;51.336;12.612;2023-05-23T07:06:11;34.83;;;28.63;;
60060;SDS011;45933;51.336;12.612;2023-05-23T07:08:37;33.83;;;22.83;;
60060;SDS011;45933;51.336;12.612;2023-05-23T07:11:02;23.88;;;17.00;;
60060;SDS011;45933;51.336;12.612;2023-05-23T07:13:28;21.95;;;15.43;;
60060;SDS011;45933;51.336;12.612;2023-05-23T07:15:54;14.98;;;11.38;;
60060;SDS011;45933;51.336;12.612;2023-05-23T07:18:19;15.32;;;11.85;;
60060;SDS011;45933;51.336;12.612;2023-05-23T07:20:45;13.77;;;10.73;;
60060;SDS011;45933;51.336;12.612;2023-05-23T07:23:10;15.80;;;10.50;;
60060;SDS011;45933;51.336;12.612;2023-05-23T07:25:35;14.85;;;10.70;;
60060;SDS011;45933;51.336;12.612;2023-05-23T07:28:01;14.07;;;10.82;;
60060;SDS011;45933;51.336;12.612;2023-05-23T07:30:26;13.48;;;9.38;;
60060;SDS011;45933;51.336;12.612;2023-05-23T07:32:51;12.02;;;9.98;;
60060;SDS011;45933;51.336;12.612;2023-05-23T07:35:17;15.32;;;10.68;;
60060;SDS011;45933;51.336;12.612;2023-05-23T07:37:47;18.35;;;10.48;;
60060;SDS011;45933;51.336;12.612;2023-05-23T07:40:13;15.35;;;10.57;;
60060;SDS011;45933;51.336;12.612;2023-05-23T07:42:38;12.77;;;10.02;;
60060;SDS011;45933;51.336;12.612;2023-05-23T07:45:03;11.13;;;9.68;;
60060;SDS011;45933;51.336;12.612;2023-05-23T07:47:29;13.55;;;10.82;;
60060;SDS011;45933;51.336;12.612;2023-05-23T07:49:55;15.05;;;9.60;;
60060;SDS011;45933;51.336;12.612;2023-05-23T07:52:20;13.13;;;9.75;;
60060;SDS011;45933;51.336;12.612;2023-05-23T07:54:45;11.23;;;8.75;;
60060;SDS011;45933;51.336;12.612;2023-05-23T07:57:11;13.98;;;9.40;;
60060;SDS011;45933;51.336;12.612;2023-05-23T07:59:36;12.68;;;8.18;;
60060;SDS011;45933;51.336;12.612;2023-05-23T08:02:02;11.15;;;8.15;;
60060;SDS011;45933;51.336;12.612;2023-05-23T08:04:27;11.18;;;8.50;;
60060;SDS011;45933;51.336;12.612;2023-05-23T08:06:53;10.93;;;8.20;;
60060;SDS011;45933;51.336;12.612;2023-05-23T08:09:19;9.05;;;7.65;;
60060;SDS011;45933;51.336;12.612;2023-05-23T08:11:45;9.57;;;8.27;;
60060;SDS011;45933;51.336;12.612;2023-05-23T08:14:10;10.35;;;7.88;;
60060;SDS011;45933;51.336;12.612;2023-05-23T08:16:35;13.65;;;8.27;;
60060;SDS011;45933;51.336;12.612;2023-05-23T08:19:01;10.55;;;8.10;;
60060;SDS011;45933;51.336;12.612;2023-05-23T08:21:27;11.18;;;8.18;;
60060;SDS011;45933;51.336;12.612;2023-05-23T08:23:52;9.20;;;7.75;;
60060;SDS011;45933;51.336;12.612;2023-05-23T08:26:17;9.77;;;7.40;;
60060;SDS011;45933;51.336;12.612;2023-05-23T08:28:43;9.77;;;7.53;;
60060;SDS011;45933;51.336;12.612;2023-05-23T08:31:08;9.55;;;7.68;;
60060;SDS011;45933;51.336;12.612;2023-05-23T08:33:33;10.68;;;7.30;;
60060;SDS011;45933;51.336;12.612;2023-05-23T08:35:58;10.15;;;7.80;;
60060;SDS011;45933;51.336;12.612;2023-05-23T08:38:24;9.23;;;7.68;;
60060;SDS011;45933;51.336;12.612;2023-05-23T08:40:51;12.25;;;7.90;;
60060;SDS011;45933;51.336;12.612;2023-05-23T08:43:16;8.73;;;7.35;;
60060;SDS011;45933;51.336;12.612;2023-05-23T08:45:43;8.32;;;7.45;;
60060;SDS011;45933;51.336;12.612;2023-05-23T08:48:09;11.25;;;8.65;;
60060;SDS011;45933;51.336;12.612;2023-05-23T08:50:37;9.20;;;7.55;;
60060;SDS011;45933;51.336;12.612;2023-05-23T08:53:04;8.35;;;7.55;;
60060;SDS011;45933;51.336;12.612;2023-05-23T08:55:32;8.88;;;7.35;;
60060;SDS011;45933;51.336;12.612;2023-05-23T08:57:58;8.38;;;7.40;;
60060;SDS011;45933;51.336;12.612;2023-05-23T09:00:24;8.35;;;7.45;;
60060;SDS011;45933;51.336;12.612;2023-05-23T09:02:50;12.27;;;7.38;;
60060;SDS011;45933;51.336;12.612;2023-05-23T09:05:16;9.27;;;7.43;;
60060;SDS011;45933;51.336;12.612;2023-05-23T09:07:42;7.93;;;6.97;;
60060;SDS011;45933;51.336;12.612;2023-05-23T09:10:11;8.95;;;6.88;;
60060;SDS011;45933;51.336;12.612;2023-05-23T09:12:38;8.52;;;7.28;;
60060;SDS011;45933;51.336;12.612;2023-05-23T09:15:04;8.50;;;6.75;;
60060;SDS011;45933;51.336;12.612;2023-05-23T09:17:31;9.15;;;7.72;;
60060;SDS011;45933;51.336;12.612;2023-05-23T09:19:58;8.30;;;6.80;;
60060;SDS011;45933;51.336;12.612;2023-05-23T09:22:23;9.93;;;7.18;;
60060;SDS011;45933;51.336;12.612;2023-05-23T09:24:55;7.28;;;6.55;;
60060;SDS011;45933;51.336;12.612;2023-05-23T09:27:21;9.80;;;6.63;;
60060;SDS011;45933;51.336;12.612;2023-05-23T09:29:47;6.63;;;5.85;;
60060;SDS011;45933;51.336;12.612;2023-05-23T09:32:14;8.10;;;6.57;;
60060;SDS011;45933;51.336;12.612;2023-05-23T09:34:56;8.38;;;6.93;;
60060;SDS011;45933;51.336;12.612;2023-05-23T09:37:28;7.25;;;6.55;;
60060;SDS011;45933;51.336;12.612;2023-05-23T09:40:00;7.25;;;6.20;;
60060;SDS011;45933;51.336;12.612;2023-05-23T09:42:31;7.20;;;5.72;;
60060;SDS011;45933;51.336;12.612;2023-05-23T09:45:00;6.63;;;5.80;;
60060;SDS011;45933;51.336;12.612;2023-05-23T09:47:26;7.22;;;6.30;;
60060;SDS011;45933;51.336;12.612;2023-05-23T09:49:51;8.43;;;6.78;;
60060;SDS011;45933;51.336;12.612;2023-05-23T09:52:16;7.55;;;6.53;;
60060;SDS011;45933;51.336;12.612;2023-05-23T09:54:44;7.90;;;6.28;;
60060;SDS011;45933;51.336;12.612;2023-05-23T09:57:10;7.18;;;5.55;;
60060;SDS011;45933;51.336;12.612;2023-05-23T09:59:38;8.15;;;5.72;;
60060;SDS011;45933;51.336;12.612;2023-05-23T10:02:10;8.82;;;6.90;;
60060;SDS011;45933;51.336;12.612;2023-05-23T10:04:37;7.20;;;6.25;;
60060;SDS011;45933;51.336;12.612;2023-05-23T10:07:17;6.78;;;6.07;;
60060;SDS011;45933;51.336;12.612;2023-05-23T10:09:46;8.27;;;6.70;;
60060;SDS011;45933;51.336;12.612;2023-05-23T10:12:33;6.57;;;5.80;;
60060;SDS011;45933;51.336;12.612;2023-05-23T10:15:05;8.40;;;5.90;;
60060;SDS011;45933;51.336;12.612;2023-05-23T10:20:15;6.57;;;5.72;;
60060;SDS011;45933;51.336;12.612;2023-05-23T10:22:44;5.93;;;5.28;;
60060;SDS011;45933;51.336;12.612;2023-05-23T10:25:10;6.25;;;4.80;;
60060;SDS011;45933;51.336;12.612;2023-05-23T10:27:39;6.18;;;4.53;;
60060;SDS011;45933;51.336;12.612;2023-05-23T10:30:06;5.45;;;4.95;;
60060;SDS011;45933;51.336;12.612;2023-05-23T10:32:32;6.72;;;5.57;;
60060;SDS011;45933;51.336;12.612;2023-05-23T10:35:00;6.70;;;5.68;;
60060;SDS011;45933;51.336;12.612;2023-05-23T10:40:49;7.13;;;5.15;;
60060;SDS011;45933;51.336;12.612;2023-05-23T10:43:23;6.80;;;5.65;;
60060;SDS011;45933;51.336;12.612;2023-05-23T10:45:53;6.88;;;5.30;;
60060;SDS011;45933;51.336;12.612;2023-05-23T10:48:31;6.65;;;4.85;;
60060;SDS011;45933;51.336;12.612;2023-05-23T10:51:02;6.22;;;5.43;;
60060;SDS011;45933;51.336;12.612;2023-05-23T10:53:29;9.70;;;5.10;;
60060;SDS011;45933;51.336;12.612;2023-05-23T10:55:55;8.50;;;5.55;;
60060;SDS011;45933;51.336;12.612;2023-05-23T10:58:21;6.35;;;5.13;;
60060;SDS011;45933;51.336;12.612;2023-05-23T11:00:58;8.43;;;5.20;;
60060;SDS011;45933;51.336;12.612;2023-05-23T11:03:36;6.85;;;4.63;;
60060;SDS011;45933;51.336;12.612;2023-05-23T11:09:10;5.95;;;5.20;;
60060;SDS011;45933;51.336;12.612;2023-05-23T11:14:19;8.45;;;5.63;;
60060;SDS011;45933;51.336;12.612;2023-05-23T11:16:55;8.18;;;6.20;;
60060;SDS011;45933;51.336;12.612;2023-05-23T11:19:21;7.72;;;6.70;;
60060;SDS011;45933;51.336;12.612;2023-05-23T11:24:18;10.55;;;7.00;;
60060;SDS011;45933;51.336;12.612;2023-05-23T11:26:54;8.07;;;6.95;;
60060;SDS011;45933;51.336;12.612;2023-05-23T11:29:28;6.57;;;5.88;;
60060;SDS011;45933;51.336;12.612;2023-05-23T11:31:56;8.57;;;6.13;;
60060;SDS011;45933;51.336;12.612;2023-05-23T11:34:24;6.22;;;4.20;;
60060;SDS011;45933;51.336;12.612;2023-05-23T11:36:53;3.58;;;3.20;;
60060;SDS011;45933;51.336;12.612;2023-05-23T11:39:20;2.78;;;2.45;;
60060;SDS011;45933;51.336;12.612;2023-05-23T11:41:49;5.53;;;2.78;;
60060;SDS011;45933;51.336;12.612;2023-05-23T11:44:27;3.63;;;2.67;;
60060;SDS011;45933;51.336;12.612;2023-05-23T11:47:26;2.55;;;2.35;;
60060;SDS011;45933;51.336;12.612;2023-05-23T11:49:44;2.60;;;2.40;;
60060;SDS011;45933;51.336;12.612;2023-05-23T11:52:11;1.90;;;1.80;;
60060;SDS011;45933;51.336;12.612;2023-05-23T11:54:38;2.03;;;1.80;;
60060;SDS011;45933;51.336;12.612;2023-05-23T11:57:05;1.40;;;1.23;;
60060;SDS011;45933;51.336;12.612;2023-05-23T11:59:30;1.63;;;0.80;;
60060;SDS011;45933;51.336;12.612;2023-05-23T12:01:55;1.27;;;1.00;;
60060;SDS011;45933;51.336;12.612;2023-05-23T12:04:20;3.55;;;1.40;;
60060;SDS011;45933;51.336;12.612;2023-05-23T12:06:46;2.28;;;1.80;;
60060;SDS011;45933;51.336;12.612;2023-05-23T12:09:12;2.13;;;1.45;;
60060;SDS011;45933;51.336;12.612;2023-05-23T12:11:38;1.80;;;1.40;;
60060;SDS011;45933;51.336;12.612;2023-05-23T12:14:05;1.40;;;1.20;;
60060;SDS011;45933;51.336;12.612;2023-05-23T12:16:31;2.40;;;1.58;;
60060;SDS011;45933;51.336;12.612;2023-05-23T12:18:57;2.80;;;1.50;;
60060;SDS011;45933;51.336;12.612;2023-05-23T12:21:26;1.35;;;1.25;;
60060;SDS011;45933;51.336;12.612;2023-05-23T12:24:12;1.90;;;1.70;;
60060;SDS011;45933;51.336;12.612;2023-05-23T12:26:49;5.78;;;2.28;;
60060;SDS011;45933;51.336;12.612;2023-05-23T12:29:16;2.60;;;2.40;;
60060;SDS011;45933;51.336;12.612;2023-05-23T12:31:42;5.78;;;2.40;;
60060;SDS011;45933;51.336;12.612;2023-05-23T12:34:09;2.35;;;2.10;;
60060;SDS011;45933;51.336;12.612;2023-05-23T12:36:35;3.55;;;2.00;;
60060;SDS011;45933;51.336;12.612;2023-05-23T12:39:03;3.22;;;2.30;;
60060;SDS011;45933;51.336;12.612;2023-05-23T12:41:30;3.65;;;2.15;;
60060;SDS011;45933;51.336;12.612;2023-05-23T12:43:56;2.53;;;2.17;;
60060;SDS011;45933;51.336;12.612;2023-05-23T12:46:22;2.60;;;2.40;;
60060;SDS011;45933;51.336;12.612;2023-05-23T12:48:49;4.28;;;3.10;;
60060;SDS011;45933;51.336;12.612;2023-05-23T12:51:16;3.60;;;2.53;;
60060;SDS011;45933;51.336;12.612;2023-05-23T12:53:41;3.72;;;2.85;;
60060;SDS011;45933;51.336;12.612;2023-05-23T12:56:07;3.35;;;2.53;;
60060;SDS011;45933;51.336;12.612;2023-05-23T12:58:32;3.22;;;2.17;;
60060;SDS011;45933;51.336;12.612;2023-05-23T13:00:59;3.97;;;2.40;;
60060;SDS011;45933;51.336;12.612;2023-05-23T13:03:25;2.92;;;2.17;;
60060;SDS011;45933;51.336;12.612;2023-05-23T13:05:50;2.33;;;2.08;;
60060;SDS011;45933;51.336;12.612;2023-05-23T13:08:17;4.95;;;2.63;;
60060;SDS011;45933;51.336;12.612;2023-05-23T13:10:43;2.58;;;2.38;;
60060;SDS011;45933;51.336;12.612;2023-05-23T13:13:08;3.38;;;3.00;;
60060;SDS011;45933;51.336;12.612;2023-05-23T13:15:34;5.22;;;3.15;;
60060;SDS011;45933;51.336;12.612;2023-05-23T13:17:59;3.90;;;3.50;;
60060;SDS011;45933;51.336;12.612;2023-05-23T13:20:24;4.90;;;3.58;;
60060;SDS011;45933;51.336;12.612;2023-05-23T13:22:54;4.07;;;3.67;;
60060;SDS011;45933;51.336;12.612;2023-05-23T13:25:19;4.13;;;3.70;;
60060;SDS011;45933;51.336;12.612;2023-05-23T13:27:45;4.45;;;3.72;;
60060;SDS011;45933;51.336;12.612;2023-05-23T13:30:11;4.00;;;3.60;;
60060;SDS011;45933;51.336;12.612;2023-05-23T13:32:36;4.53;;;3.90;;
60060;SDS011;45933;51.336;12.612;2023-05-23T13:35:01;4.72;;;4.22;;
60060;SDS011;45933;51.336;12.612;2023-05-23T13:37:27;9.63;;;3.90;;
60060;SDS011;45933;51.336;12.612;2023-05-23T13:39:52;5.45;;;3.97;;
60060;SDS011;45933;51.336;12.612;2023-05-23T13:42:17;4.30;;;3.78;;
60060;SDS011;45933;51.336;12.612;2023-05-23T13:44:43;3.95;;;3.55;;
60060;SDS011;45933;51.336;12.612;2023-05-23T13:47:09;3.92;;;3.30;;
60060;SDS011;45933;51.336;12.612;2023-05-23T13:49:35;4.43;;;3.95;;
60060;SDS011;45933;51.336;12.612;2023-05-23T13:52:01;4.20;;;3.20;;
60060;SDS011;45933;51.336;12.612;2023-05-23T13:54:26;4.18;;;3.33;;
60060;SDS011;45933;51.336;12.612;2023-05-23T13:56:51;3.58;;;3.17;;
60060;SDS011;45933;51.336;12.612;2023-05-23T13:59:17;4.43;;;3.20;;
60060;SDS011;45933;51.336;12.612;2023-05-23T14:01:45;4.60;;;3.10;;
60060;SDS011;45933;51.336;12.612;2023-05-23T14:04:11;5.43;;;3.05;;
60060;SDS011;45933;51.336;12.612;2023-05-23T14:06:36;4.43;;;2.75;;
60060;SDS011;45933;51.336;12.612;2023-05-23T14:09:02;3.50;;;3.03;;
60060;SDS011;45933;51.336;12.612;2023-05-23T14:11:28;3.72;;;3.15;;
60060;SDS011;45933;51.336;12.612;2023-05-23T14:13:53;4.50;;;2.90;;
60060;SDS011;45933;51.336;12.612;2023-05-23T14:16:18;3.05;;;2.75;;
60060;SDS011;45933;51.336;12.612;2023-05-23T14:18:44;6.97;;;3.10;;
60060;SDS011;45933;51.336;12.612;2023-05-23T14:21:09;4.50;;;3.13;;
60060;SDS011;45933;51.336;12.612;2023-05-23T14:23:35;3.85;;;3.42;;
60060;SDS011;45933;51.336;12.612;2023-05-23T14:26:00;7.70;;;3.17;;
60060;SDS011;45933;51.336;12.612;2023-05-23T14:28:25;11.38;;;4.28;;
60060;SDS011;45933;51.336;12.612;2023-05-23T14:30:51;5.38;;;4.00;;
60060;SDS011;45933;51.336;12.612;2023-05-23T14:33:16;4.57;;;4.00;;
60060;SDS011;45933;51.336;12.612;2023-05-23T14:35:42;4.78;;;3.85;;
60060;SDS011;45933;51.336;12.612;2023-05-23T14:38:07;4.60;;;4.03;;
60060;SDS011;45933;51.336;12.612;2023-05-23T14:40:32;4.78;;;3.67;;
60060;SDS011;45933;51.336;12.612;2023-05-23T14:42:57;4.15;;;3.72;;